Time;durP1;ratioP1;P1;durP2;ratioP2;P2;SDS_P1;SDS_P2;PMS_P1;PMS_P2;Temp;Humidity;BMP_temperature;BMP_pressure;BME280_temperature;BME280_humidity;BME280_pressure;Samples;Min_cycle;Max_cycle;Signal;HPM_P1;HPM_P2
2023/04/30 00:01:23;;;;;;;17.95;8.13;;;;;;;10.39;73.56;100526.72;5061443;28;20144;-81
2023/04/30 00:03:48;;;;;;;14.15;7.47;;;;;;;10.31;73.06;100527.13;5059992;28;20055;-81
2023/04/30 00:06:14;;;;;;;10.90;6.73;;;;;;;10.32;73.60;100534.22;5061280;28;20108;-83
2023/04/30 00:08:39;;;;;;;11.25;7.05;;;;;;;10.24;74.06;100538.19;5058083;28;20269;-82
2023/04/30 00:11:04;;;;;;;10.67;4.87;;;;;;;10.20;74.01;100525.28;5060805;28;20039;-82
2023/04/30 00:13:30;;;;;;;11.73;6.50;;;;;;;10.16;74.48;100535.84;5061970;28;20266;-82
2023/04/30 00:15:55;;;;;;;11.93;6.53;;;;;;;10.09;74.52;100533.25;5060074;28;20041;-82
2023/04/30 00:18:20;;;;;;;12.67;6.43;;;;;;;10.16;74.55;100535.84;5059401;28;20269;-82
2023/04/30 00:20:45;;;;;;;16.07;8.20;;;;;;;10.13;73.88;100536.31;5060753;28;20343;-81
2023/04/30 00:23:11;;;;;;;14.57;7.10;;;;;;;9.99;74.28;100541.22;5059738;28;20270;-81
2023/04/30 00:25:36;;;;;;;14.67;7.43;;;;;;;9.85;74.91;100538.78;5059173;28;20358;-81
2023/04/30 00:28:01;;;;;;;12.40;6.80;;;;;;;9.81;74.89;100540.31;5059554;28;20340;-81
2023/04/30 00:30:26;;;;;;;14.90;6.73;;;;;;;9.81;74.74;100540.31;5060082;28;20039;-83
2023/04/30 00:32:52;;;;;;;15.65;7.05;;;;;;;9.84;75.40;100544.47;5059430;28;20281;-81
2023/04/30 00:35:17;;;;;;;9.83;6.00;;;;;;;9.90;75.52;100549.78;5060021;28;20512;-81
2023/04/30 00:37:42;;;;;;;14.77;7.28;;;;;;;9.88;74.86;100551.94;5059484;28;20257;-81
2023/04/30 00:40:08;;;;;;;16.20;8.03;;;;;;;9.86;74.83;100548.63;5089708;28;20953;-82
2023/04/30 00:42:33;;;;;;;11.50;6.00;;;;;;;9.72;75.00;100542.63;5060461;28;20265;-81
2023/04/30 00:44:59;;;;;;;12.77;7.28;;;;;;;9.71;74.98;100545.56;5059525;28;20036;-81
2023/04/30 00:47:24;;;;;;;13.57;6.68;;;;;;;9.58;75.26;100547.47;5060777;28;20068;-79
2023/04/30 00:49:53;;;;;;;15.38;7.38;;;;;;;9.56;75.98;100544.16;5060767;28;20040;-81
2023/04/30 00:52:18;;;;;;;15.10;8.38;;;;;;;9.55;75.69;100553.41;5059966;28;20120;-82
2023/04/30 00:54:44;;;;;;;16.77;8.15;;;;;;;9.51;75.47;100546.78;5060553;28;20044;-80
2023/04/30 00:57:11;;;;;;;11.75;5.68;;;;;;;9.46;75.82;100553.75;5059792;28;20112;-82
2023/04/30 00:59:37;;;;;;;18.30;7.43;;;;;;;9.52;75.34;100553.88;5061189;28;20032;-81
2023/04/30 01:02:03;;;;;;;17.60;9.07;;;;;;;9.50;75.47;100550.56;5063076;28;20028;-81
2023/04/30 01:04:28;;;;;;;19.00;8.70;;;;;;;9.41;75.71;100540.03;5059499;28;20085;-80
2023/04/30 01:06:55;;;;;;;14.35;7.28;;;;;;;9.33;75.81;100546.69;5060866;28;20056;-81
2023/04/30 01:09:20;;;;;;;19.83;9.63;;;;;;;9.34;75.74;100544.75;5060996;28;20116;-81
2023/04/30 01:12:02;;;;;;;13.40;7.22;;;;;;;9.36;75.39;100539.91;5059830;28;20028;-82
2023/04/30 01:14:32;;;;;;;12.70;7.43;;;;;;;9.23;76.00;100546.44;5059510;28;20032;-83
2023/04/30 01:17:20;;;;;;;14.75;7.63;;;;;;;9.13;75.79;100541.59;5060143;28;20028;-82
2023/04/30 01:19:46;;;;;;;13.18;8.65;;;;;;;9.03;76.38;100535.91;5059690;28;20039;-81
2023/04/30 01:22:34;;;;;;;11.65;7.38;;;;;;;9.05;76.50;100534.59;5059790;28;20076;-81
2023/04/30 01:25:31;;;;;;;14.20;7.25;;;;;;;9.06;76.06;100532.69;5059558;28;20040;-79
2023/04/30 01:28:17;;;;;;;15.70;7.63;;;;;;;9.02;76.46;100535.06;5059783;28;20036;-81
2023/04/30 01:30:43;;;;;;;18.52;7.60;;;;;;;9.04;76.44;100530.22;5060316;28;20039;-82
2023/04/30 01:33:10;;;;;;;10.98;7.13;;;;;;;9.06;76.38;100533.53;5060492;28;20028;-80
2023/04/30 01:35:41;;;;;;;12.90;7.85;;;;;;;9.02;76.26;100535.06;5058919;28;20024;-82
2023/04/30 01:38:12;;;;;;;13.98;7.90;;;;;;;8.97;76.47;100537.69;5059690;28;20123;-81
2023/04/30 01:40:46;;;;;;;14.00;7.57;;;;;;;8.97;76.61;100534.97;5058445;28;20053;-82
2023/04/30 01:43:39;;;;;;;15.05;8.40;;;;;;;9.04;76.30;100532.09;5059073;28;20032;-82
2023/04/30 01:46:15;;;;;;;19.40;8.57;;;;;;;8.95;76.61;100535.16;5058974;28;20465;-82
2023/04/30 01:49:18;;;;;;;18.40;9.32;;;;;;;8.98;76.33;100529.28;5059060;28;20029;-82
2023/04/30 01:51:46;;;;;;;14.25;7.72;;;;;;;8.98;77.13;100540.16;5059528;28;20082;-83
2023/04/30 01:54:20;;;;;;;19.33;8.52;;;;;;;9.03;76.53;100527.75;5058621;28;20040;-82
2023/04/30 01:56:56;;;;;;;12.65;6.95;;;;;;;8.98;76.75;100534.72;5058443;28;20047;-83
2023/04/30 01:59:22;;;;;;;14.20;8.60;;;;;;;8.97;76.86;100527.59;5058402;28;20036;-83
2023/04/30 02:01:47;;;;;;;15.35;7.50;;;;;;;9.04;75.94;100538.38;5057431;28;20140;-82
2023/04/30 02:04:13;;;;;;;15.07;7.80;;;;;;;8.99;76.24;100536.34;5058581;28;20513;-82
2023/04/30 02:06:40;;;;;;;15.77;8.48;;;;;;;8.90;76.89;100539.66;5058193;28;20336;-82
2023/04/30 02:09:05;;;;;;;15.98;9.15;;;;;;;8.94;77.12;100538.97;5058537;28;20059;-83
2023/04/30 02:11:31;;;;;;;12.35;7.97;;;;;;;8.86;76.72;100536.59;5058431;28;20509;-82
2023/04/30 02:13:56;;;;;;;16.98;8.85;;;;;;;8.84;76.87;100528.66;5058732;28;20028;-83
2023/04/30 02:16:22;;;;;;;12.88;7.20;;;;;;;8.80;77.16;100534.81;5059439;28;20397;-83
2023/04/30 02:18:48;;;;;;;14.18;8.82;;;;;;;8.79;76.63;100541.31;5058080;28;20142;-82
2023/04/30 02:21:13;;;;;;;19.45;9.18;;;;;;;8.68;77.22;100538.34;5059066;28;20659;-83
2023/04/30 02:23:39;;;;;;;15.77;8.95;;;;;;;8.64;77.20;100540.66;5059307;28;20036;-82
2023/04/30 02:26:04;;;;;;;15.68;8.40;;;;;;;8.53;77.32;100539.56;5058129;28;20036;-81
2023/04/30 02:28:29;;;;;;;17.35;10.95;;;;;;;8.50;77.43;100540.00;5059062;28;20032;-81
2023/04/30 02:30:55;;;;;;;15.73;10.07;;;;;;;8.59;77.33;100548.72;5059251;28;20037;-82
2023/04/30 02:33:20;;;;;;;18.50;10.15;;;;;;;8.49;77.42;100549.25;5058778;28;20280;-82
2023/04/30 02:35:45;;;;;;;15.77;9.57;;;;;;;8.57;77.30;100542.66;5058940;28;20043;-81
2023/04/30 02:38:11;;;;;;;17.58;10.02;;;;;;;8.57;77.70;100550.81;5058316;28;20261;-82
2023/04/30 02:40:36;;;;;;;16.85;9.60;;;;;;;8.53;77.64;100545.00;5057993;28;20053;-81
2023/04/30 02:43:02;;;;;;;15.88;9.52;;;;;;;8.50;77.61;100555.50;5058393;28;20600;-82
2023/04/30 02:45:27;;;;;;;22.25;10.20;;;;;;;8.45;77.80;100547.22;5058135;28;21176;-82
2023/04/30 02:47:52;;;;;;;17.38;10.23;;;;;;;8.41;77.99;100557.72;5058886;28;20111;-82
2023/04/30 02:50:17;;;;;;;15.38;10.77;;;;;;;8.38;78.04;100547.31;5058711;28;20025;-81
2023/04/30 02:52:45;;;;;;;23.52;12.10;;;;;;;8.40;77.73;100550.63;5057805;28;20059;-82
2023/04/30 02:55:11;;;;;;;20.52;10.85;;;;;;;8.43;77.99;100546.59;5057786;28;20062;-81
2023/04/30 02:57:36;;;;;;;16.50;9.50;;;;;;;8.42;77.96;100548.50;5059314;28;20630;-81
2023/04/30 03:00:02;;;;;;;19.45;9.98;;;;;;;8.36;78.44;100542.09;5057576;28;20114;-80
2023/04/30 03:02:27;;;;;;;16.08;9.63;;;;;;;8.36;78.56;100552.16;5057399;28;20025;-80
2023/04/30 03:04:53;;;;;;;18.50;10.70;;;;;;;8.47;78.05;100550.53;5057121;28;20680;-81
2023/04/30 03:07:18;;;;;;;18.60;10.57;;;;;;;8.51;77.68;100557.16;5057564;28;20272;-80
2023/04/30 03:09:45;;;;;;;14.05;10.15;;;;;;;8.50;77.46;100541.91;5058028;28;20277;-80
2023/04/30 03:12:10;;;;;;;25.08;11.80;;;;;;;8.47;77.87;100545.09;5059597;28;20044;-79
2023/04/30 03:14:36;;;;;;;21.08;10.70;;;;;;;8.43;77.14;100539.28;5060673;28;20039;-79
2023/04/30 03:17:01;;;;;;;18.45;11.07;;;;;;;8.39;77.58;100536.22;5061951;28;20051;-79
2023/04/30 03:19:26;;;;;;;17.17;10.10;;;;;;;8.27;77.69;100541.59;5062163;28;20702;-80
2023/04/30 03:21:52;;;;;;;17.60;10.73;;;;;;;8.36;78.27;100541.28;5062158;28;20331;-79
2023/04/30 03:24:18;;;;;;;18.98;11.18;;;;;;;8.33;78.13;100539.00;5062336;28;20033;-80
2023/04/30 03:26:44;;;;;;;17.25;9.93;;;;;;;8.34;78.88;100536.06;5061772;28;20112;-80
2023/04/30 03:29:09;;;;;;;17.63;10.98;;;;;;;8.42;78.09;100529.47;5061775;28;20028;-80
2023/04/30 03:31:34;;;;;;;15.65;10.23;;;;;;;8.41;78.33;100539.53;5062014;28;20032;-79
2023/04/30 03:34:00;;;;;;;20.05;11.18;;;;;;;8.45;77.80;100537.19;5061463;28;20120;-80
2023/04/30 03:36:26;;;;;;;25.23;13.53;;;;;;;8.49;78.08;100532.94;5061751;28;20284;-79
2023/04/30 03:38:51;;;;;;;21.48;12.25;;;;;;;8.50;78.15;100529.13;5061438;28;20262;-79
2023/04/30 03:41:17;;;;;;;20.83;11.57;;;;;;;8.60;78.44;100535.94;5060969;28;20060;-79
2023/04/30 03:43:42;;;;;;;22.77;14.07;;;;;;;8.67;77.82;100527.69;5062567;28;20055;-79
2023/04/30 03:46:07;;;;;;;22.13;13.10;;;;;;;8.63;77.43;100535.47;5061174;28;20467;-80
2023/04/30 03:48:33;;;;;;;24.83;12.73;;;;;;;8.52;77.93;100528.94;5061668;28;20036;-80
2023/04/30 03:50:58;;;;;;;23.02;12.75;;;;;;;8.56;77.68;100527.41;5061315;28;20476;-80
2023/04/30 03:53:25;;;;;;;21.05;12.90;;;;;;;8.51;77.74;100532.69;5062078;28;20159;-79
2023/04/30 03:55:51;;;;;;;21.63;12.98;;;;;;;8.44;78.16;100530.06;5060693;28;20032;-80
2023/04/30 03:58:16;;;;;;;21.92;11.15;;;;;;;8.53;77.55;100528.69;5061532;28;20040;-79
2023/04/30 04:00:42;;;;;;;17.10;10.88;;;;;;;8.52;77.85;100527.03;5060697;28;20116;-80
2023/04/30 04:03:07;;;;;;;20.00;12.07;;;;;;;8.57;77.37;100530.97;5059206;28;20028;-80
2023/04/30 04:05:32;;;;;;;19.02;11.93;;;;;;;8.53;77.31;100538.72;5061230;28;20414;-79
2023/04/30 04:07:57;;;;;;;20.58;12.18;;;;;;;8.43;77.27;100539.28;5060161;28;20709;-79
2023/04/30 04:10:23;;;;;;;22.67;11.85;;;;;;;8.35;76.89;100545.06;5061276;28;20029;-80
2023/04/30 04:12:48;;;;;;;18.05;12.27;;;;;;;8.24;77.17;100542.06;5061395;28;20036;-80
2023/04/30 04:15:14;;;;;;;18.85;11.25;;;;;;;8.22;77.76;100546.88;5061026;28;20032;-80
2023/04/30 04:17:39;;;;;;;22.25;11.88;;;;;;;8.19;77.75;100550.06;5060924;28;20037;-80
2023/04/30 04:20:05;;;;;;;25.92;13.40;;;;;;;8.11;78.42;100558.53;5061165;28;20111;-80
2023/04/30 04:22:30;;;;;;;20.98;11.55;;;;;;;8.14;78.44;100560.78;5062110;28;21121;-80
2023/04/30 04:24:56;;;;;;;21.38;11.93;;;;;;;8.09;78.06;100560.66;5060542;28;20037;-80
2023/04/30 04:27:22;;;;;;;20.58;12.15;;;;;;;8.08;77.82;100561.69;5061375;28;20033;-81
2023/04/30 04:29:47;;;;;;;20.63;12.02;;;;;;;8.00;78.12;100558.25;5059707;28;20115;-80
2023/04/30 04:32:13;;;;;;;21.85;12.95;;;;;;;8.02;78.80;100561.56;5061380;28;20058;-80
2023/04/30 04:34:38;;;;;;;17.95;11.30;;;;;;;8.01;78.89;100565.34;5061282;28;20048;-80
2023/04/30 04:37:04;;;;;;;20.27;12.07;;;;;;;8.14;78.53;100552.63;5061881;28;20040;-81
2023/04/30 04:39:29;;;;;;;18.55;10.70;;;;;;;8.25;78.03;100559.19;5060335;28;20036;-80
2023/04/30 04:41:54;;;;;;;18.13;10.13;;;;;;;8.27;78.14;100557.91;5060414;28;20039;-80
2023/04/30 04:44:20;;;;;;;24.37;11.83;;;;;;;8.29;77.97;100560.38;5060708;28;20135;-80
2023/04/30 04:46:45;;;;;;;16.10;10.43;;;;;;;8.23;78.37;100562.16;5060602;28;20323;-80
2023/04/30 04:49:11;;;;;;;21.83;11.23;;;;;;;8.44;78.10;100557.25;5060295;28;20039;-80
2023/04/30 04:51:38;;;;;;;18.45;12.43;;;;;;;8.33;78.63;100558.03;5060657;28;20262;-80
2023/04/30 04:54:03;;;;;;;17.88;10.15;;;;;;;8.47;78.04;100559.50;5060174;28;20048;-79
2023/04/30 04:56:29;;;;;;;18.58;12.98;;;;;;;8.52;77.69;100562.34;5060300;28;20367;-80
2023/04/30 04:58:54;;;;;;;18.83;13.40;;;;;;;8.54;77.67;100562.16;5059985;28;20145;-80
2023/04/30 05:01:20;;;;;;;19.98;12.00;;;;;;;8.60;78.12;100563.13;5060957;28;20288;-79
2023/04/30 05:03:46;;;;;;;18.25;10.60;;;;;;;8.70;77.68;100560.69;5060218;28;20483;-79
2023/04/30 05:06:11;;;;;;;23.65;11.68;;;;;;;8.70;77.87;100559.84;5061850;28;20066;-80
2023/04/30 05:08:37;;;;;;;20.85;11.93;;;;;;;8.67;78.16;100580.16;5060482;28;20025;-80
2023/04/30 05:11:02;;;;;;;16.23;10.88;;;;;;;8.67;78.20;100582.88;5060616;28;20051;-80
2023/04/30 05:13:27;;;;;;;16.58;11.45;;;;;;;8.78;78.34;100572.28;5060111;28;20029;-80
2023/04/30 05:15:53;;;;;;;21.73;12.77;;;;;;;8.91;77.59;100573.97;5060386;28;20924;-80
2023/04/30 05:18:19;;;;;;;20.75;11.40;;;;;;;8.91;77.84;100577.50;5059515;28;20024;-80
2023/04/30 05:20:44;;;;;;;19.33;11.43;;;;;;;8.87;77.83;100576.31;5060889;28;20028;-80
2023/04/30 05:23:10;;;;;;;28.90;13.63;;;;;;;8.89;78.18;100574.19;5060268;28;20417;-80
2023/04/30 05:25:35;;;;;;;18.40;11.93;;;;;;;8.87;78.49;100577.13;5059856;28;20148;-79
2023/04/30 05:28:01;;;;;;;19.27;11.80;;;;;;;9.00;77.82;100572.56;5060464;28;20490;-80
2023/04/30 05:30:26;;;;;;;17.92;10.95;;;;;;;8.95;78.03;100567.81;5058040;28;20497;-80
2023/04/30 05:32:52;;;;;;;19.65;10.98;;;;;;;8.96;78.13;100574.09;5059761;28;20061;-80
2023/04/30 05:35:18;;;;;;;20.95;10.82;;;;;;;9.06;78.13;100578.94;5059491;28;20039;-80
2023/04/30 05:37:44;;;;;;;15.77;10.77;;;;;;;9.05;78.02;100574.56;5059250;28;20094;-80
2023/04/30 05:40:10;;;;;;;18.10;11.18;;;;;;;9.14;77.63;100585.94;5059149;28;20045;-80
2023/04/30 05:42:37;;;;;;;17.27;11.18;;;;;;;9.12;77.49;100588.88;5059786;28;20028;-79
2023/04/30 05:45:02;;;;;;;17.67;10.80;;;;;;;9.25;77.18;100589.72;5058410;28;20040;-79
2023/04/30 05:47:28;;;;;;;17.27;11.98;;;;;;;9.16;77.59;100587.34;5059289;28;20028;-81
2023/04/30 05:49:53;;;;;;;18.37;10.67;;;;;;;9.21;77.84;100592.91;5059622;28;20027;-80
2023/04/30 05:52:18;;;;;;;19.77;11.02;;;;;;;9.17;77.78;100590.91;5060085;28;21161;-80
2023/04/30 05:54:44;;;;;;;22.60;11.73;;;;;;;9.20;77.76;100596.72;5059315;28;20037;-80
2023/04/30 05:57:09;;;;;;;19.17;10.52;;;;;;;9.18;78.31;100596.13;5059853;28;20246;-80
2023/04/30 05:59:34;;;;;;;19.48;10.50;;;;;;;9.25;77.92;100596.00;5060341;28;20983;-79
2023/04/30 06:02:00;;;;;;;19.20;10.63;;;;;;;9.39;77.76;100599.31;5059531;28;20466;-80
2023/04/30 06:04:25;;;;;;;19.35;10.77;;;;;;;9.31;77.83;100602.41;5058970;28;20066;-80
2023/04/30 06:06:50;;;;;;;18.13;10.53;;;;;;;9.32;77.95;100596.72;5059029;28;20037;-80
2023/04/30 06:09:15;;;;;;;19.77;12.05;;;;;;;9.40;77.86;100600.97;5060322;28;20260;-80
2023/04/30 06:11:41;;;;;;;16.90;10.00;;;;;;;9.41;77.92;100591.75;5058920;28;20056;-80
2023/04/30 06:14:06;;;;;;;18.42;12.00;;;;;;;9.41;78.08;100594.47;5058828;28;20250;-80
2023/04/30 06:16:31;;;;;;;16.48;10.00;;;;;;;9.57;77.75;100595.66;5059404;28;20017;-80
2023/04/30 06:18:57;;;;;;;19.40;12.60;;;;;;;9.71;77.70;100594.56;5059202;28;20032;-80
2023/04/30 06:21:24;;;;;;;17.92;10.00;;;;;;;9.84;76.84;100590.78;5059568;28;20029;-79
2023/04/30 06:23:51;;;;;;;20.88;11.25;;;;;;;9.87;76.64;100593.84;5059563;28;20615;-79
2023/04/30 06:26:16;;;;;;;17.45;9.68;;;;;;;9.96;76.45;100597.03;5058576;28;20032;-80
2023/04/30 06:28:42;;;;;;;15.32;9.68;;;;;;;9.95;76.96;100594.53;5059300;28;20068;-79
2023/04/30 06:31:07;;;;;;;16.08;9.60;;;;;;;10.01;76.77;100593.56;5058458;28;20460;-80
2023/04/30 06:33:32;;;;;;;17.05;10.35;;;;;;;9.98;77.22;100597.63;5060413;28;20112;-80
2023/04/30 06:35:58;;;;;;;19.43;10.50;;;;;;;9.97;77.49;100592.38;5058756;28;20040;-80
2023/04/30 06:38:23;;;;;;;15.97;9.13;;;;;;;10.06;77.24;100590.97;5058845;28;20262;-80
2023/04/30 06:40:48;;;;;;;19.73;9.45;;;;;;;10.06;76.57;100593.69;5057923;28;20301;-80
2023/04/30 06:43:13;;;;;;;15.18;9.95;;;;;;;10.06;77.31;100595.56;5058710;28;20028;-80
2023/04/30 06:45:39;;;;;;;19.83;12.20;;;;;;;10.16;76.92;100591.16;5059237;28;20612;-80
2023/04/30 06:48:04;;;;;;;16.98;8.43;;;;;;;10.12;77.07;100600.91;5059135;28;20257;-80
2023/04/30 06:50:30;;;;;;;18.02;8.93;;;;;;;10.29;76.28;100589.25;5062620;28;20397;-80
2023/04/30 06:52:55;;;;;;;19.20;10.38;;;;;;;10.35;75.60;100588.25;5062510;28;20070;-80
2023/04/30 06:55:20;;;;;;;14.57;8.43;;;;;;;10.39;75.32;100588.59;5063132;28;20371;-80
2023/04/30 06:57:46;;;;;;;14.63;8.37;;;;;;;10.46;75.38;100588.44;5063065;28;20268;-80
2023/04/30 07:00:14;;;;;;;16.17;9.73;;;;;;;10.50;75.22;100592.38;5062992;28;20853;-80
2023/04/30 07:02:39;;;;;;;16.05;9.55;;;;;;;10.47;75.68;100598.28;5062429;28;20029;-80
2023/04/30 07:05:05;;;;;;;18.02;11.13;;;;;;;10.55;74.94;100592.47;5063217;28;20189;-80
2023/04/30 07:07:31;;;;;;;19.42;9.57;;;;;;;10.51;75.71;100583.13;5063325;28;20032;-80
2023/04/30 07:09:56;;;;;;;17.02;9.23;;;;;;;10.59;75.69;100588.19;5062851;28;20032;-80
2023/04/30 07:12:21;;;;;;;15.68;7.95;;;;;;;10.65;75.41;100586.38;5062389;28;20086;-81
2023/04/30 07:14:47;;;;;;;13.48;8.68;;;;;;;10.72;75.09;100572.56;5061574;28;20682;-80
2023/04/30 07:17:12;;;;;;;13.40;7.63;;;;;;;10.76;74.60;100587.38;5063187;28;20032;-82
2023/04/30 07:19:37;;;;;;;15.57;8.90;;;;;;;10.81;74.43;100584.75;5063452;28;20337;-80
2023/04/30 07:22:03;;;;;;;20.70;9.67;;;;;;;10.86;74.43;100578.56;5063358;28;20289;-82
2023/04/30 07:24:28;;;;;;;19.83;9.00;;;;;;;10.79;75.08;100575.16;5062649;28;20249;-81
2023/04/30 07:26:53;;;;;;;16.85;8.18;;;;;;;10.79;74.29;100578.72;5063194;28;20374;-79
2023/04/30 07:29:19;;;;;;;17.67;8.93;;;;;;;10.89;74.22;100579.94;5062653;28;20021;-80
2023/04/30 07:31:44;;;;;;;17.25;9.82;;;;;;;10.84;74.69;100578.78;5062969;28;20542;-77
2023/04/30 07:34:09;;;;;;;15.13;7.82;;;;;;;10.86;74.19;100568.47;5062430;28;20040;-77
2023/04/30 07:36:34;;;;;;;16.10;9.03;;;;;;;10.98;73.99;100573.03;5063678;28;20103;-75
2023/04/30 07:39:00;;;;;;;16.67;9.20;;;;;;;10.90;74.06;100570.72;5062634;28;20253;-78
2023/04/30 07:41:25;;;;;;;12.27;8.38;;;;;;;10.93;73.83;100570.19;5062880;28;20285;-78
2023/04/30 07:43:51;;;;;;;12.77;6.90;;;;;;;10.98;74.18;100573.84;5062529;28;20115;-75
2023/04/30 07:46:16;;;;;;;16.90;8.02;;;;;;;11.01;73.83;100569.78;5063485;28;20119;-77
2023/04/30 07:48:41;;;;;;;14.48;6.00;;;;;;;10.97;74.32;100569.47;5062475;28;20036;-76
2023/04/30 07:51:06;;;;;;;11.63;7.38;;;;;;;11.01;74.66;100572.53;5062512;28;20020;-76
2023/04/30 07:53:32;;;;;;;15.35;8.75;;;;;;;11.07;74.94;100570.69;5062277;28;20123;-76
2023/04/30 07:55:57;;;;;;;14.95;8.50;;;;;;;11.12;75.05;100569.97;5062171;28;20042;-76
2023/04/30 07:58:22;;;;;;;15.93;9.80;;;;;;;11.15;73.17;100574.91;5062736;28;20083;-76
2023/04/30 08:00:47;;;;;;;13.13;7.73;;;;;;;11.18;74.50;100577.16;5062185;28;20332;-75
2023/04/30 08:03:13;;;;;;;20.50;10.98;;;;;;;11.25;73.85;100588.72;5062463;28;20260;-77
2023/04/30 08:05:39;;;;;;;14.35;7.63;;;;;;;11.33;74.07;100580.09;5062041;28;20078;-79
2023/04/30 08:08:05;;;;;;;14.15;7.57;;;;;;;11.42;73.50;100583.25;5061160;28;20152;-77
2023/04/30 08:10:30;;;;;;;17.13;9.52;;;;;;;11.51;72.73;100591.03;5062215;28;20533;-77
2023/04/30 08:12:56;;;;;;;17.17;9.20;;;;;;;11.53;73.27;100584.22;5061578;28;20032;-76
2023/04/30 08:15:21;;;;;;;18.15;9.38;;;;;;;11.52;72.43;100584.47;5060881;28;20024;-77
2023/04/30 08:17:49;;;;;;;16.17;8.15;;;;;;;11.55;72.47;100582.06;5061967;28;20033;-77
2023/04/30 08:20:14;;;;;;;11.32;6.63;;;;;;;11.55;71.88;100586.72;5061268;28;20186;-77
2023/04/30 08:22:40;;;;;;;15.57;7.38;;;;;;;11.57;71.73;100592.75;5061934;28;20501;-77
2023/04/30 08:25:05;;;;;;;15.00;7.45;;;;;;;11.61;72.06;100577.53;5060974;28;20484;-77
2023/04/30 08:27:31;;;;;;;13.77;6.70;;;;;;;11.64;71.09;100576.16;5061270;28;20562;-77
2023/04/30 08:29:56;;;;;;;11.23;6.78;;;;;;;11.73;71.49;100584.75;5060908;28;20028;-77
2023/04/30 08:32:21;;;;;;;11.50;6.63;;;;;;;11.79;71.90;100578.28;5060840;28;20039;-77
2023/04/30 08:34:47;;;;;;;12.30;6.43;;;;;;;11.92;72.95;100585.28;5061080;28;20741;-77
2023/04/30 08:37:12;;;;;;;16.13;7.90;;;;;;;11.96;71.67;100578.22;5061438;28;20326;-77
2023/04/30 08:39:37;;;;;;;12.18;7.13;;;;;;;12.05;71.25;100586.81;5061092;28;20292;-77
2023/04/30 08:42:07;;;;;;;16.77;7.67;;;;;;;12.00;70.17;100584.84;5060549;28;20033;-77
2023/04/30 08:44:35;;;;;;;11.57;6.57;;;;;;;12.09;70.71;100584.38;5060576;28;20268;-78
2023/04/30 08:47:00;;;;;;;11.35;6.35;;;;;;;12.18;70.17;100587.53;5061072;28;20032;-78
2023/04/30 08:49:27;;;;;;;13.15;7.10;;;;;;;12.24;69.66;100584.59;5060586;28;20040;-77
2023/04/30 08:51:52;;;;;;;24.27;6.13;;;;;;;12.29;69.70;100591.19;5060353;28;20112;-78
2023/04/30 08:54:18;;;;;;;14.10;7.30;;;;;;;12.35;70.20;100582.81;5061444;28;20115;-76
2023/04/30 08:56:46;;;;;;;14.15;6.80;;;;;;;12.43;69.42;100586.16;5061054;28;20032;-76
2023/04/30 08:59:12;;;;;;;9.93;5.10;;;;;;;12.53;69.02;100586.25;5060143;28;20024;-77
2023/04/30 09:01:37;;;;;;;8.93;5.00;;;;;;;12.60;67.91;100572.41;5060454;28;20074;-76
2023/04/30 09:04:03;;;;;;;10.57;5.85;;;;;;;12.70;68.51;100577.13;5060448;28;20498;-76
2023/04/30 09:06:29;;;;;;;8.10;4.13;;;;;;;12.80;68.34;100579.13;5061293;28;20490;-77
2023/04/30 09:08:54;;;;;;;9.50;5.15;;;;;;;12.89;67.46;100576.75;5060288;28;20028;-77
2023/04/30 09:11:27;;;;;;;8.50;4.28;;;;;;;13.01;67.90;100576.56;5059895;28;20037;-77
2023/04/30 09:13:56;;;;;;;10.80;5.40;;;;;;;13.07;67.27;100576.38;5060009;28;20044;-77
2023/04/30 09:16:22;;;;;;;9.73;4.65;;;;;;;13.14;66.53;100576.13;5060349;28;20158;-76
2023/04/30 09:18:48;;;;;;;10.65;6.13;;;;;;;13.25;66.76;100570.72;5060298;28;20040;-77
2023/04/30 09:21:14;;;;;;;9.13;5.30;;;;;;;13.32;67.13;100568.59;5060514;28;20028;-77
2023/04/30 09:23:56;;;;;;;12.60;5.82;;;;;;;13.42;67.29;100565.91;5060453;28;20044;-77
2023/04/30 09:26:26;;;;;;;9.77;5.28;;;;;;;13.52;67.11;100558.84;5060263;28;20082;-77
2023/04/30 09:28:56;;;;;;;7.80;4.75;;;;;;;13.62;65.60;100564.44;5059866;28;20107;-78
2023/04/30 09:31:22;;;;;;;8.63;4.57;;;;;;;13.72;66.68;100565.56;5060223;28;20032;-78
2023/04/30 09:33:47;;;;;;;7.78;3.40;;;;;;;13.75;65.51;100565.03;5059611;28;20047;-78
2023/04/30 09:36:12;;;;;;;6.00;4.13;;;;;;;13.87;65.42;100570.31;5059615;28;20040;-78
2023/04/30 09:38:38;;;;;;;11.23;5.82;;;;;;;13.86;62.67;100561.25;5060080;28;20259;-78
2023/04/30 09:41:04;;;;;;;9.20;4.43;;;;;;;13.97;65.02;100564.84;5058980;28;20132;-77
2023/04/30 09:43:30;;;;;;;12.68;4.57;;;;;;;14.11;64.44;100559.72;5060912;28;20027;-77
2023/04/30 09:45:57;;;;;;;9.80;3.42;;;;;;;14.21;64.10;100558.06;5060010;28;20028;-77
2023/04/30 09:48:24;;;;;;;7.53;3.58;;;;;;;14.28;64.13;100558.63;5060568;28;20494;-78
2023/04/30 09:50:50;;;;;;;7.55;3.88;;;;;;;14.40;63.98;100549.34;5060109;28;20700;-75
2023/04/30 09:53:19;;;;;;;6.35;3.90;;;;;;;14.48;63.82;100559.78;5060652;28;20119;-75
2023/04/30 09:55:49;;;;;;;8.70;3.90;;;;;;;14.63;63.89;100552.66;5059992;28;20063;-75
2023/04/30 09:58:16;;;;;;;8.43;4.07;;;;;;;14.70;62.91;100545.81;5060127;28;20024;-79
2023/04/30 10:00:43;;;;;;;14.25;4.95;;;;;;;14.82;62.53;100539.22;5059401;28;20031;-75
2023/04/30 10:03:11;;;;;;;12.48;4.68;;;;;;;14.87;62.35;100535.69;5060441;28;20738;-75
2023/04/30 10:05:39;;;;;;;8.48;5.15;;;;;;;14.96;62.51;100534.03;5059756;28;20406;-75
2023/04/30 10:08:07;;;;;;;6.90;3.25;;;;;;;15.05;62.12;100537.88;5059814;28;20024;-75
2023/04/30 10:10:33;;;;;;;6.43;3.15;;;;;;;15.09;58.26;100537.31;5059225;28;20035;-75
2023/04/30 10:13:04;;;;;;;9.88;4.28;;;;;;;15.14;59.77;100526.31;5060088;28;20712;-75
2023/04/30 10:15:38;;;;;;;7.53;3.83;;;;;;;15.17;60.18;100528.53;5058671;28;20035;-75
2023/04/30 10:18:07;;;;;;;4.88;2.88;;;;;;;15.26;58.58;100524.09;5059765;28;20036;-76
2023/04/30 10:20:38;;;;;;;4.32;2.63;;;;;;;15.34;60.00;100527.38;5059558;28;20360;-75
2023/04/30 10:23:04;;;;;;;6.38;2.55;;;;;;;15.40;59.01;100526.25;5058810;28;20103;-77
2023/04/30 10:25:29;;;;;;;5.07;2.50;;;;;;;15.48;57.54;100517.44;5058334;28;20043;-77
2023/04/30 10:27:55;;;;;;;6.30;4.03;;;;;;;15.55;58.89;100519.91;5059323;28;20032;-76
2023/04/30 10:30:21;;;;;;;5.70;2.70;;;;;;;15.54;57.34;100515.50;5060008;28;20024;-76
2023/04/30 10:33:02;;;;;;;10.90;3.45;;;;;;;15.60;58.35;100508.88;5059004;28;20398;-75
2023/04/30 10:35:32;;;;;;;10.32;3.90;;;;;;;15.72;58.69;100510.50;5058608;28;20036;-75
2023/04/30 10:38:14;;;;;;;7.13;2.92;;;;;;;15.76;57.08;100512.41;5058729;28;20058;-76
2023/04/30 10:40:39;;;;;;;7.15;3.47;;;;;;;15.85;58.50;100504.41;5058695;28;20057;-76
2023/04/30 10:43:04;;;;;;;5.15;2.50;;;;;;;15.96;58.61;100499.66;5058767;28;20094;-75
2023/04/30 10:45:35;;;;;;;8.13;3.85;;;;;;;15.96;55.80;100498.84;5058529;28;20095;-75
2023/04/30 10:48:02;;;;;;;7.18;3.08;;;;;;;16.12;56.32;100499.59;5058707;28;20033;-76
2023/04/30 10:50:29;;;;;;;11.02;3.13;;;;;;;16.15;56.44;100499.03;5059370;28;20040;-75
2023/04/30 10:53:04;;;;;;;9.63;3.63;;;;;;;16.17;56.64;100494.06;5058438;28;20106;-76
2023/04/30 10:55:31;;;;;;;5.68;3.20;;;;;;;16.21;57.36;100483.34;5058667;28;20036;-75
2023/04/30 10:57:58;;;;;;;6.78;3.35;;;;;;;16.25;55.88;100489.09;5058562;28;20040;-75
2023/04/30 11:00:27;;;;;;;7.28;3.92;;;;;;;16.28;55.61;100477.50;5058290;28;20032;-80
2023/04/30 11:03:01;;;;;;;6.43;3.35;;;;;;;16.35;54.44;100483.50;5058834;28;20121;-81
2023/04/30 11:05:39;;;;;;;5.63;2.67;;;;;;;16.43;56.03;100471.88;5058311;28;20028;-80
2023/04/30 11:08:10;;;;;;;7.13;2.83;;;;;;;16.56;55.51;100478.66;5057364;28;20537;-79
2023/04/30 11:10:35;;;;;;;6.53;2.45;;;;;;;16.53;55.34;100473.75;5059120;28;20513;-81
2023/04/30 11:13:06;;;;;;;5.95;3.08;;;;;;;16.66;55.08;100466.72;5059559;28;20028;-82
2023/04/30 11:15:42;;;;;;;8.05;2.72;;;;;;;16.69;54.72;100470.84;5059755;28;20482;-82
2023/04/30 11:18:08;;;;;;;7.00;2.80;;;;;;;16.54;54.26;100469.88;5058524;28;20028;-82